createdAt,value
2018-04-13T00:02:10.997Z,13.59
2018-04-13T00:04:38.531Z,13.56
2018-04-13T00:07:06.085Z,13.52
2018-04-13T00:09:33.808Z,13.51
2018-04-13T00:12:01.352Z,13.52
2018-04-13T00:14:28.928Z,13.47
2018-04-13T00:16:56.519Z,13.42
2018-04-13T00:19:24.071Z,13.40
2018-04-13T00:21:51.616Z,13.36
2018-04-13T00:24:19.338Z,13.34
2018-04-13T00:26:47.745Z,13.30
2018-04-13T00:29:15.324Z,13.27
2018-04-13T00:31:43.053Z,13.25
2018-04-13T00:34:10.594Z,13.23
2018-04-13T00:36:38.139Z,13.22
2018-04-13T00:39:05.748Z,13.23
2018-04-13T00:41:33.292Z,13.20
2018-04-13T00:44:00.840Z,13.18
2018-04-13T00:46:28.420Z,13.18
2018-04-13T00:48:55.963Z,13.12
2018-04-13T00:51:23.511Z,13.10
2018-04-13T00:53:51.076Z,13.08
2018-04-13T00:56:18.623Z,13.08
2018-04-13T00:58:46.172Z,13.05
2018-04-13T01:01:14.060Z,13.03
2018-04-13T01:03:41.615Z,12.99
2018-04-13T01:06:09.162Z,12.98
2018-04-13T01:08:37.050Z,12.96
2018-04-13T01:11:04.611Z,12.92
2018-04-13T01:13:32.176Z,12.92
2018-04-13T01:15:59.894Z,12.94
2018-04-13T01:18:27.441Z,12.93
2018-04-13T01:20:54.981Z,12.93
2018-04-13T01:23:22.698Z,12.91
2018-04-13T01:25:50.237Z,12.92
2018-04-13T01:28:17.775Z,12.91
2018-04-13T01:30:45.499Z,12.87
2018-04-13T01:33:13.045Z,12.83
2018-04-13T01:35:40.581Z,12.79
2018-04-13T01:38:08.173Z,12.76
2018-04-13T01:40:35.717Z,12.71
2018-04-13T01:43:03.284Z,12.72
2018-04-13T01:45:31.002Z,12.70
2018-04-13T01:47:58.553Z,12.67
2018-04-13T01:50:26.092Z,12.67
2018-04-13T01:52:53.903Z,12.66
2018-04-13T01:55:21.455Z,12.65
2018-04-13T01:57:49.001Z,12.68
2018-04-13T02:00:16.552Z,12.73
2018-04-13T02:02:44.099Z,12.76
2018-04-13T02:05:11.671Z,12.74
2018-04-13T02:07:39.221Z,12.79
2018-04-13T02:10:06.756Z,12.77
2018-04-13T02:12:34.477Z,12.77
2018-04-13T02:15:02.011Z,12.73
2018-04-13T02:17:29.559Z,12.69
2018-04-13T02:19:57.323Z,12.63
2018-04-13T02:22:24.864Z,12.59
2018-04-13T02:24:52.405Z,12.55
2018-04-13T02:27:20.133Z,12.48
2018-04-13T02:29:47.680Z,12.45
2018-04-13T02:32:15.227Z,12.41
2018-04-13T02:34:42.987Z,12.38
2018-04-13T02:37:10.546Z,12.36
2018-04-13T02:39:38.101Z,12.36
2018-04-13T02:42:05.684Z,12.33
2018-04-13T02:44:33.228Z,12.29
2018-04-13T02:47:00.773Z,12.28
2018-04-13T02:49:28.491Z,12.28
2018-04-13T02:51:56.049Z,12.28
2018-04-13T02:54:23.588Z,12.27
2018-04-13T02:56:51.170Z,12.23
2018-04-13T02:59:18.707Z,12.20
2018-04-13T03:01:46.251Z,12.16
2018-04-13T03:04:14.120Z,12.12
2018-04-13T03:06:41.663Z,12.12
2018-04-13T03:09:09.199Z,12.09
2018-04-13T03:11:36.972Z,12.05
2018-04-13T03:14:04.519Z,12.03
2018-04-13T03:16:32.070Z,12.04
2018-04-13T03:18:59.801Z,12.04
2018-04-13T03:21:27.349Z,11.99
2018-04-13T03:23:54.893Z,11.99
2018-04-13T03:26:22.464Z,11.95
2018-04-13T03:28:50.019Z,11.99
2018-04-13T03:31:17.567Z,11.99
2018-04-13T03:33:45.261Z,11.94
2018-04-13T03:36:12.813Z,11.90
2018-04-13T03:38:40.356Z,11.86
2018-04-13T03:41:07.932Z,11.87
2018-04-13T03:43:35.481Z,11.88
2018-04-13T03:46:03.026Z,11.88
2018-04-13T03:48:30.826Z,11.86
2018-04-13T03:50:58.363Z,11.87
2018-04-13T03:53:25.918Z,11.93
2018-04-13T03:55:53.511Z,11.92
2018-04-13T03:58:21.051Z,11.95
2018-04-13T04:00:48.600Z,11.98
2018-04-13T04:03:16.355Z,11.96
2018-04-13T04:05:43.934Z,12.01
2018-04-13T04:08:11.493Z,12.05
2018-04-13T04:10:39.208Z,12.23
2018-04-13T04:13:06.767Z,12.39
2018-04-13T04:15:34.310Z,12.61
2018-04-13T04:18:01.932Z,12.90
2018-04-13T04:20:41.220Z,13.30
2018-04-13T04:23:20.759Z,13.80
2018-04-13T04:26:00.056Z,14.45
2018-04-13T04:28:27.803Z,15.18
2018-04-13T04:30:55.345Z,15.90
2018-04-13T04:33:22.894Z,16.61
2018-04-13T04:35:50.469Z,17.34
2018-04-13T04:38:18.039Z,17.95
2018-04-13T04:40:45.610Z,18.76
2018-04-13T04:43:13.300Z,19.61
2018-04-13T04:45:40.857Z,20.46
2018-04-13T04:48:08.404Z,21.12
2018-04-13T04:50:36.301Z,21.85
2018-04-13T04:53:03.865Z,22.61
2018-04-13T04:55:31.424Z,23.51
2018-04-13T04:57:59.014Z,24.58
2018-04-13T05:00:26.572Z,25.05
2018-04-13T05:02:54.127Z,26.02
2018-04-13T05:05:21.868Z,26.85
2018-04-13T05:07:49.419Z,27.74
2018-04-13T05:10:16.956Z,27.88
2018-04-13T05:12:44.544Z,28.21
2018-04-13T05:15:12.124Z,28.71
2018-04-13T05:17:39.682Z,29.85
2018-04-13T05:20:07.260Z,29.97
2018-04-13T05:22:34.825Z,30.29
2018-04-13T05:25:02.388Z,30.76
2018-04-13T05:27:30.118Z,31.22
2018-04-13T05:29:57.675Z,31.74
2018-04-13T05:32:25.229Z,31.68
2018-04-13T05:34:52.814Z,31.21
2018-04-13T05:37:20.361Z,31.46
2018-04-13T05:39:47.900Z,31.49
2018-04-13T05:42:15.478Z,31.28
2018-04-13T05:44:43.031Z,30.89
2018-04-13T05:47:10.579Z,30.06
2018-04-13T05:49:38.313Z,29.69
2018-04-13T05:52:05.861Z,28.87
2018-04-13T05:54:33.432Z,28.70
2018-04-13T05:57:01.020Z,27.97
2018-04-13T05:59:28.577Z,27.64
2018-04-13T06:01:56.169Z,27.09
2018-04-13T06:04:23.766Z,26.92
2018-04-13T06:06:51.331Z,26.90
2018-04-13T06:09:18.879Z,26.66
2018-04-13T06:11:46.609Z,26.23
2018-04-13T06:14:14.167Z,25.72
2018-04-13T06:16:41.718Z,25.34
2018-04-13T06:19:10.177Z,25.50
2018-04-13T06:21:37.741Z,25.59
2018-04-13T06:24:05.300Z,25.28
2018-04-13T06:26:33.032Z,24.28
2018-04-13T06:29:00.589Z,23.72
2018-04-13T06:31:28.141Z,23.28
2018-04-13T06:33:55.862Z,23.11
2018-04-13T06:36:23.435Z,22.68
2018-04-13T06:38:51.017Z,22.49
2018-04-13T06:41:18.608Z,22.71
2018-04-13T06:43:46.204Z,23.11
2018-04-13T06:46:13.750Z,23.28
2018-04-13T06:48:41.386Z,23.42
2018-04-13T06:51:08.923Z,23.18
2018-04-13T06:53:36.485Z,23.37
2018-04-13T06:56:04.135Z,23.60
2018-04-13T06:58:31.691Z,23.31
2018-04-13T07:00:59.253Z,23.71
2018-04-13T07:03:26.850Z,24.08
2018-04-13T07:05:54.401Z,24.30
2018-04-13T07:08:21.999Z,24.50
2018-04-13T07:10:49.588Z,24.36
2018-04-13T07:13:17.148Z,24.09
2018-04-13T07:15:44.699Z,24.15
2018-04-13T07:18:12.285Z,24.19
2018-04-13T07:20:39.859Z,24.27
2018-04-13T07:23:07.417Z,24.64
2018-04-13T07:25:35.013Z,24.44
2018-04-13T07:28:02.595Z,24.30
2018-04-13T07:30:30.148Z,24.16
2018-04-13T07:32:57.732Z,23.83
2018-04-13T07:35:25.289Z,24.08
2018-04-13T07:37:52.854Z,24.31
2018-04-13T07:40:20.455Z,24.31
2018-04-13T07:42:48.009Z,24.14
2018-04-13T07:45:15.564Z,24.18
2018-04-13T07:47:43.161Z,24.11
2018-04-13T07:50:10.749Z,24.01
2018-04-13T07:52:38.301Z,24.11
2018-04-13T07:55:05.895Z,24.26
2018-04-13T07:57:33.444Z,24.20
2018-04-13T08:00:00.984Z,24.32
2018-04-13T08:02:28.827Z,23.89
2018-04-13T08:04:56.372Z,23.97
2018-04-13T08:07:23.925Z,24.04
2018-04-13T08:09:51.519Z,24.07
2018-04-13T08:12:19.141Z,23.93
2018-04-13T08:14:46.680Z,23.43
2018-04-13T08:17:14.262Z,23.41
2018-04-13T08:19:41.808Z,23.49
2018-04-13T08:22:09.352Z,23.41
2018-04-13T08:24:37.064Z,23.23
2018-04-13T08:27:04.601Z,23.14
2018-04-13T08:29:32.143Z,23.29
2018-04-13T08:31:59.861Z,23.61
2018-04-13T08:34:27.407Z,23.88
2018-04-13T08:36:54.960Z,23.73
2018-04-13T08:39:22.540Z,23.90
2018-04-13T08:41:50.098Z,24.22
2018-04-13T08:44:17.641Z,24.25
2018-04-13T08:46:45.501Z,24.12
2018-04-13T08:49:13.157Z,24.20
2018-04-13T08:51:40.628Z,24.29
2018-04-13T08:54:08.279Z,24.16
2018-04-13T08:56:35.804Z,24.06
2018-04-13T08:59:03.348Z,23.90
2018-04-13T09:01:30.900Z,23.99
2018-04-13T09:03:58.449Z,24.01
2018-04-13T09:06:26.250Z,24.23
2018-04-13T09:08:53.778Z,24.05
2018-04-13T09:11:21.337Z,24.10
2018-04-13T09:13:49.207Z,24.31
2018-04-13T09:16:16.791Z,24.56
2018-04-13T09:18:44.377Z,24.58
2018-04-13T09:21:11.951Z,24.27
2018-04-13T09:23:39.488Z,23.90
2018-04-13T09:26:07.040Z,23.69
2018-04-13T09:28:34.617Z,23.84
2018-04-13T09:31:02.194Z,23.94
2018-04-13T09:33:29.759Z,24.30
2018-04-13T09:35:57.487Z,24.02
2018-04-13T09:38:25.032Z,24.10
2018-04-13T09:40:52.621Z,23.84
2018-04-13T09:43:20.188Z,24.11
2018-04-13T09:45:47.741Z,24.55
2018-04-13T09:48:15.293Z,24.87
2018-04-13T09:50:43.164Z,25.03
2018-04-13T09:53:10.713Z,25.21
2018-04-13T09:55:38.260Z,25.13
2018-04-13T09:58:05.840Z,25.19
2018-04-13T10:00:33.413Z,25.32
2018-04-13T10:03:03.765Z,25.15
2018-04-13T10:05:31.359Z,25.12
2018-04-13T10:07:58.899Z,25.35
2018-04-13T10:10:26.443Z,25.76
2018-04-13T10:12:54.035Z,26.14
2018-04-13T10:15:21.588Z,26.34
2018-04-13T10:17:49.142Z,26.37
2018-04-13T10:20:16.734Z,26.33
2018-04-13T10:22:44.274Z,26.08
2018-04-13T10:25:11.832Z,26.13
2018-04-13T10:27:39.563Z,26.16
2018-04-13T10:30:07.117Z,25.73
2018-04-13T10:32:34.676Z,25.60
2018-04-13T10:35:02.401Z,25.69
2018-04-13T10:37:29.945Z,25.87
2018-04-13T10:39:57.509Z,25.42
2018-04-13T10:42:25.360Z,25.84
2018-04-13T10:44:52.905Z,25.95
2018-04-13T10:47:20.447Z,26.15
2018-04-13T10:49:48.168Z,26.28
2018-04-13T10:52:15.720Z,26.47
2018-04-13T10:54:43.273Z,26.24
2018-04-13T10:57:11.322Z,26.01
2018-04-13T10:59:38.865Z,25.79
2018-04-13T11:02:06.410Z,25.62
2018-04-13T11:04:34.010Z,25.88
2018-04-13T11:07:01.562Z,26.35
2018-04-13T11:09:29.103Z,26.23
2018-04-13T11:11:56.687Z,25.77
2018-04-13T11:14:24.265Z,25.72
2018-04-13T11:16:51.845Z,26.01
2018-04-13T11:19:19.419Z,26.49
2018-04-13T11:21:46.978Z,26.81
2018-04-13T11:24:14.518Z,26.64
2018-04-13T11:26:42.241Z,26.66
2018-04-13T11:29:09.778Z,26.90
2018-04-13T11:31:37.358Z,26.96
2018-04-13T11:34:05.622Z,26.81
2018-04-13T11:36:33.169Z,26.46
2018-04-13T11:39:00.728Z,26.70
2018-04-13T11:41:28.384Z,26.75
2018-04-13T11:43:55.898Z,26.47
2018-04-13T11:46:23.435Z,26.52
2018-04-13T11:48:51.114Z,25.97
2018-04-13T11:51:18.660Z,25.42
2018-04-13T11:53:46.233Z,25.23
2018-04-13T11:56:13.804Z,25.37
2018-04-13T11:58:41.346Z,25.72
2018-04-13T12:01:08.928Z,25.97
2018-04-13T12:03:36.506Z,26.18
2018-04-13T12:06:04.065Z,26.15
2018-04-13T12:08:31.616Z,26.19
2018-04-13T12:10:59.200Z,25.97
2018-04-13T12:13:26.745Z,26.01
2018-04-13T12:15:54.289Z,25.83
2018-04-13T12:18:21.892Z,25.57
2018-04-13T12:20:50.225Z,25.49
2018-04-13T12:23:17.780Z,25.51
2018-04-13T12:25:45.697Z,25.46
2018-04-13T12:28:13.250Z,25.49
2018-04-13T12:30:40.813Z,25.46
2018-04-13T12:33:08.528Z,25.27
2018-04-13T12:35:36.085Z,25.02
2018-04-13T12:38:03.680Z,25.14
2018-04-13T12:40:31.267Z,25.30
2018-04-13T12:42:58.813Z,25.52
2018-04-13T12:45:26.374Z,25.63
2018-04-13T12:47:53.971Z,25.64
2018-04-13T12:50:21.548Z,25.68
2018-04-13T12:52:49.163Z,25.52
2018-04-13T12:55:16.892Z,25.65
2018-04-13T12:57:44.444Z,25.82
2018-04-13T13:00:12.022Z,25.68
2018-04-13T13:02:39.644Z,25.67
2018-04-13T13:05:07.193Z,25.65
2018-04-13T13:07:34.738Z,25.72
2018-04-13T13:10:02.479Z,25.49
2018-04-13T13:12:30.065Z,25.62
2018-04-13T13:14:57.617Z,25.60
2018-04-13T13:17:25.504Z,25.61
2018-04-13T13:19:53.052Z,25.88
2018-04-13T13:22:20.612Z,25.86
2018-04-13T13:24:48.201Z,25.91
2018-04-13T13:27:15.748Z,26.06
2018-04-13T13:29:43.293Z,26.00
2018-04-13T13:32:10.895Z,26.06
2018-04-13T13:34:38.446Z,26.23
2018-04-13T13:37:06.141Z,26.21
2018-04-13T13:39:33.733Z,26.20
2018-04-13T13:42:01.272Z,26.34
2018-04-13T13:44:28.836Z,26.10
2018-04-13T13:46:56.424Z,25.77
2018-04-13T13:49:23.973Z,25.80
2018-04-13T13:51:51.513Z,25.72
2018-04-13T13:54:19.100Z,25.58
2018-04-13T13:56:46.652Z,25.66
2018-04-13T13:59:14.226Z,25.45
2018-04-13T14:01:41.776Z,25.68
2018-04-13T14:04:09.333Z,25.71
2018-04-13T14:06:36.929Z,25.59
2018-04-13T14:09:04.525Z,25.60
2018-04-13T14:11:32.089Z,25.50
2018-04-13T14:13:59.692Z,25.55
2018-04-13T14:16:27.248Z,25.48
2018-04-13T14:18:54.807Z,25.37
2018-04-13T14:21:22.397Z,25.49
2018-04-13T14:23:49.944Z,25.69
2018-04-13T14:26:17.495Z,25.71
2018-04-13T14:28:45.087Z,25.86
2018-04-13T14:31:12.634Z,25.88
2018-04-13T14:33:40.184Z,25.95
2018-04-13T14:36:07.762Z,25.85
2018-04-13T14:38:35.311Z,25.94
2018-04-13T14:41:02.867Z,26.04
2018-04-13T14:43:30.464Z,25.96
2018-04-13T14:45:58.027Z,25.97
2018-04-13T14:48:25.566Z,25.92
2018-04-13T14:50:53.174Z,26.00
2018-04-13T14:53:20.725Z,26.10
2018-04-13T14:55:48.278Z,25.85
2018-04-13T14:58:15.997Z,25.67
2018-04-13T15:00:43.567Z,25.62
2018-04-13T15:03:11.104Z,25.47
2018-04-13T15:05:38.846Z,25.46
2018-04-13T15:08:06.399Z,25.44
2018-04-13T15:10:33.937Z,25.33
2018-04-13T15:13:01.553Z,25.32
2018-04-13T15:15:29.085Z,25.42
2018-04-13T15:17:56.636Z,25.54
2018-04-13T15:20:24.213Z,25.47
2018-04-13T15:22:51.782Z,25.44
2018-04-13T15:25:19.349Z,25.31
2018-04-13T15:27:47.068Z,25.19
2018-04-13T15:30:14.659Z,25.16
2018-04-13T15:32:42.213Z,25.05
2018-04-13T15:35:10.124Z,24.79
2018-04-13T15:37:37.676Z,24.75
2018-04-13T15:40:05.234Z,24.82
2018-04-13T15:42:32.829Z,24.80
2018-04-13T15:45:00.376Z,24.83
2018-04-13T15:47:27.920Z,24.83
2018-04-13T15:49:55.508Z,24.78
2018-04-13T15:52:23.055Z,24.53
2018-04-13T15:54:50.612Z,24.54
2018-04-13T15:57:18.411Z,24.31
2018-04-13T15:59:45.949Z,24.34
2018-04-13T16:02:13.503Z,24.10
2018-04-13T16:04:41.233Z,23.86
2018-04-13T16:07:08.809Z,23.76
2018-04-13T16:09:36.357Z,23.55
2018-04-13T16:12:04.260Z,23.29
2018-04-13T16:14:31.837Z,23.22
2018-04-13T16:16:59.385Z,23.13
2018-04-13T16:19:27.117Z,22.93
2018-04-13T16:21:54.685Z,22.86
2018-04-13T16:24:22.244Z,22.80
2018-04-13T16:26:49.829Z,22.76
2018-04-13T16:29:17.374Z,22.57
2018-04-13T16:31:44.921Z,22.52
2018-04-13T16:34:12.513Z,22.51
2018-04-13T16:36:40.100Z,22.35
2018-04-13T16:39:07.658Z,22.28
2018-04-13T16:41:35.388Z,22.14
2018-04-13T16:44:02.937Z,22.03
2018-04-13T16:46:30.481Z,21.90
2018-04-13T16:48:58.119Z,21.85
2018-04-13T16:51:25.693Z,21.67
2018-04-13T16:53:53.263Z,21.64
2018-04-13T16:56:21.157Z,21.54
2018-04-13T16:58:48.732Z,21.40
2018-04-13T17:01:16.309Z,21.36
2018-04-13T17:03:43.884Z,21.31
2018-04-13T17:06:11.448Z,21.14
2018-04-13T17:08:39.024Z,21.09
2018-04-13T17:11:07.020Z,20.98
2018-04-13T17:13:34.573Z,20.92
2018-04-13T17:16:02.113Z,20.88
2018-04-13T17:18:29.840Z,20.84
2018-04-13T17:20:57.424Z,20.76
2018-04-13T17:23:24.997Z,20.71
2018-04-13T17:25:52.630Z,20.63
2018-04-13T17:28:20.185Z,20.59
2018-04-13T17:30:47.741Z,20.53
2018-04-13T17:33:15.488Z,20.53
2018-04-13T17:35:43.042Z,20.42
2018-04-13T17:38:11.469Z,20.40
2018-04-13T17:40:39.057Z,20.26
2018-04-13T17:43:06.620Z,20.03
2018-04-13T17:45:34.232Z,19.92
2018-04-13T17:48:01.925Z,19.68
2018-04-13T17:50:29.484Z,19.61
2018-04-13T17:52:57.035Z,19.54
2018-04-13T17:55:24.771Z,19.55
2018-04-13T17:57:52.328Z,19.55
2018-04-13T18:00:19.884Z,19.45
2018-04-13T18:02:47.760Z,19.40
2018-04-13T18:05:15.333Z,19.40
2018-04-13T18:07:42.905Z,19.34
2018-04-13T18:10:10.495Z,19.34
2018-04-13T18:12:38.041Z,19.24
2018-04-13T18:15:05.603Z,19.15
2018-04-13T18:17:33.188Z,19.10
2018-04-13T18:20:00.931Z,19.00
2018-04-13T18:22:28.493Z,18.83
2018-04-13T18:24:56.078Z,18.80
2018-04-13T18:27:23.629Z,18.76
2018-04-13T18:29:51.181Z,18.70
2018-04-13T18:32:18.923Z,18.60
2018-04-13T18:34:47.249Z,18.59
2018-04-13T18:37:14.793Z,18.66
2018-04-13T18:39:42.389Z,18.66
2018-04-13T18:42:09.965Z,18.63
2018-04-13T18:44:37.530Z,18.62
2018-04-13T18:47:05.150Z,18.61
2018-04-13T18:49:32.717Z,18.59
2018-04-13T18:52:00.267Z,18.57
2018-04-13T18:54:28.037Z,18.65
2018-04-13T18:56:55.603Z,18.62
2018-04-13T18:59:23.162Z,18.61
2018-04-13T19:01:50.705Z,18.57
2018-04-13T19:04:18.262Z,18.53
2018-04-13T19:06:45.940Z,18.48
2018-04-13T19:09:13.489Z,18.43
2018-04-13T19:11:41.088Z,18.26
2018-04-13T19:14:08.834Z,18.14
2018-04-13T19:16:36.415Z,18.06
2018-04-13T19:19:04.000Z,17.96
2018-04-13T19:21:31.739Z,17.86
2018-04-13T19:23:59.293Z,17.81
2018-04-13T19:26:26.854Z,17.72
2018-04-13T19:28:54.598Z,17.66
2018-04-13T19:31:22.167Z,17.59
2018-04-13T19:33:49.729Z,17.53
2018-04-13T19:36:17.459Z,17.51
2018-04-13T19:38:45.037Z,17.41
2018-04-13T19:41:12.594Z,17.39
2018-04-13T19:43:40.182Z,17.26
2018-04-13T19:46:07.740Z,17.18
2018-04-13T19:48:35.290Z,17.18
2018-04-13T19:51:03.016Z,17.12
2018-04-13T19:53:30.571Z,17.08
2018-04-13T19:55:58.124Z,17.02
2018-04-13T19:58:25.719Z,16.90
2018-04-13T20:00:53.268Z,16.87
2018-04-13T20:03:20.848Z,16.74
2018-04-13T20:05:48.420Z,16.68
2018-04-13T20:08:15.973Z,16.64
2018-04-13T20:10:43.516Z,16.57
2018-04-13T20:13:11.107Z,16.54
2018-04-13T20:15:38.659Z,16.51
2018-04-13T20:18:06.207Z,16.50
2018-04-13T20:20:33.796Z,16.34
2018-04-13T20:23:01.397Z,16.31
2018-04-13T20:25:28.968Z,16.31
2018-04-13T20:27:56.568Z,16.30
2018-04-13T20:30:24.151Z,16.34
2018-04-13T20:32:51.714Z,16.33
2018-04-13T20:35:19.596Z,16.29
2018-04-13T20:37:47.141Z,16.29
2018-04-13T20:40:14.693Z,16.28
2018-04-13T20:42:42.424Z,16.30
2018-04-13T20:45:09.976Z,16.29
2018-04-13T20:47:37.541Z,16.31
2018-04-13T20:50:05.133Z,16.27
2018-04-13T20:52:32.681Z,16.32
2018-04-13T20:55:00.250Z,16.22
2018-04-13T20:57:27.869Z,16.17
2018-04-13T20:59:55.451Z,16.15
2018-04-13T21:02:22.997Z,16.13
2018-04-13T21:04:50.728Z,16.10
2018-04-13T21:07:18.266Z,16.11
2018-04-13T21:09:45.826Z,16.09
2018-04-13T21:12:13.412Z,16.02
2018-04-13T21:14:40.948Z,16.01
2018-04-13T21:17:08.496Z,16.00
2018-04-13T21:19:36.077Z,15.97
2018-04-13T21:22:03.643Z,15.98
2018-04-13T21:24:31.211Z,15.93
2018-04-13T21:26:59.084Z,15.83
2018-04-13T21:29:26.669Z,15.86
2018-04-13T21:31:54.216Z,15.91
2018-04-13T21:34:22.097Z,15.99
2018-04-13T21:36:49.651Z,15.99
2018-04-13T21:39:17.195Z,16.02
2018-04-13T21:41:44.767Z,16.01
2018-04-13T21:44:12.446Z,16.03
2018-04-13T21:46:39.984Z,16.05
2018-04-13T21:49:07.585Z,16.08
2018-04-13T21:51:35.143Z,16.13
2018-04-13T21:54:02.698Z,16.18
2018-04-13T21:56:30.293Z,16.20
2018-04-13T21:58:57.837Z,16.25
2018-04-13T22:01:25.380Z,16.23
2018-04-13T22:03:53.256Z,16.27
2018-04-13T22:06:20.818Z,16.32
2018-04-13T22:08:48.365Z,16.34
2018-04-13T22:11:15.947Z,16.28
2018-04-13T22:13:46.477Z,16.24
2018-04-13T22:16:14.049Z,16.20
2018-04-13T22:18:41.779Z,16.18
2018-04-13T22:21:09.326Z,16.08
2018-04-13T22:23:36.862Z,16.06
2018-04-13T22:26:04.583Z,15.98
2018-04-13T22:28:32.128Z,15.95
2018-04-13T22:30:59.676Z,15.90
2018-04-13T22:33:27.540Z,15.92
2018-04-13T22:35:55.092Z,15.91
2018-04-13T22:38:22.630Z,15.96
2018-04-13T22:40:50.209Z,15.97
2018-04-13T22:43:17.745Z,16.02
2018-04-13T22:45:45.291Z,15.92
2018-04-13T22:48:13.027Z,15.90
2018-04-13T22:50:40.559Z,15.90
2018-04-13T22:53:08.112Z,15.88
2018-04-13T22:55:35.669Z,15.77
2018-04-13T22:58:03.275Z,15.67
2018-04-13T23:00:30.826Z,15.71
2018-04-13T23:02:58.377Z,15.68
2018-04-13T23:05:25.915Z,15.69
2018-04-13T23:07:53.477Z,15.67
2018-04-13T23:10:21.020Z,15.52
2018-04-13T23:12:48.579Z,15.42
2018-04-13T23:15:16.148Z,15.34
2018-04-13T23:17:43.707Z,15.24
2018-04-13T23:20:11.273Z,15.14
2018-04-13T23:22:39.166Z,15.05
2018-04-13T23:25:06.725Z,14.95
2018-04-13T23:27:34.268Z,14.88
2018-04-13T23:30:01.996Z,14.79
2018-04-13T23:32:29.536Z,14.70
2018-04-13T23:34:57.113Z,14.63
2018-04-13T23:37:24.869Z,14.56
2018-04-13T23:39:52.417Z,14.48
2018-04-13T23:42:19.964Z,14.45
2018-04-13T23:44:47.694Z,14.38
2018-04-13T23:47:15.249Z,14.31
2018-04-13T23:49:42.799Z,14.29
2018-04-13T23:52:10.380Z,14.24
2018-04-13T23:54:37.929Z,14.19
2018-04-13T23:57:05.476Z,14.12
2018-04-13T23:59:33.110Z,14.08
